Terminal Aerodrome Forecast
Issued by NWS Tallahassee, FL

Home | Current Version | Previous Version | Text Only | Print | Product List | Glossary On
Versions: 1 2 3 4 5 6 7 8 9 10 11 12 13 14 15 16 17 18
000
FTUS42 KTAE 010500
TAFTLH
TAF
KTLH 010520Z 0106/0206 VRB03KT P6SM OVC045
     FM011200 VRB02KT 4SM BR SCT012
     FM011300 10006KT P6SM SCT040=

USA.gov is the U.S. government's official web portal to all federal, state and local government web resources and services.